sensor_id;sensor_type;location;lat;lon;timestamp;P1;durP1;ratioP1;P2;durP2;ratioP2
59649;SDS011;46162;57.568;25.814;2023-02-15T00:00:45;9.85;;;1.27;;
59649;SDS011;46162;57.568;25.814;2023-02-15T00:03:15;10.10;;;1.73;;
59649;SDS011;46162;57.568;25.814;2023-02-15T00:05:44;7.93;;;1.65;;
59649;SDS011;46162;57.568;25.814;2023-02-15T00:08:12;8.23;;;1.52;;
59649;SDS011;46162;57.568;25.814;2023-02-15T00:10:40;8.02;;;1.38;;
59649;SDS011;46162;57.568;25.814;2023-02-15T00:13:10;11.02;;;1.63;;
59649;SDS011;46162;57.568;25.814;2023-02-15T00:15:39;8.55;;;1.45;;
59649;SDS011;46162;57.568;25.814;2023-02-15T00:18:07;8.10;;;1.10;;
59649;SDS011;46162;57.568;25.814;2023-02-15T00:20:36;6.00;;;0.93;;
59649;SDS011;46162;57.568;25.814;2023-02-15T00:23:04;5.63;;;0.68;;
59649;SDS011;46162;57.568;25.814;2023-02-15T00:25:32;7.25;;;1.13;;
59649;SDS011;46162;57.568;25.814;2023-02-15T00:28:01;7.97;;;1.33;;
59649;SDS011;46162;57.568;25.814;2023-02-15T00:30:31;10.13;;;1.08;;
59649;SDS011;46162;57.568;25.814;2023-02-15T00:33:00;8.85;;;1.60;;
59649;SDS011;46162;57.568;25.814;2023-02-15T00:35:28;5.57;;;1.15;;
59649;SDS011;46162;57.568;25.814;2023-02-15T00:37:56;7.68;;;1.50;;
59649;SDS011;46162;57.568;25.814;2023-02-15T00:40:25;7.93;;;1.95;;
59649;SDS011;46162;57.568;25.814;2023-02-15T00:42:54;7.70;;;1.95;;
59649;SDS011;46162;57.568;25.814;2023-02-15T00:45:22;10.80;;;2.67;;
59649;SDS011;46162;57.568;25.814;2023-02-15T00:47:52;10.35;;;3.25;;
59649;SDS011;46162;57.568;25.814;2023-02-15T00:50:21;13.40;;;3.60;;
59649;SDS011;46162;57.568;25.814;2023-02-15T00:52:49;10.90;;;3.00;;
59649;SDS011;46162;57.568;25.814;2023-02-15T00:55:19;11.07;;;3.30;;
59649;SDS011;46162;57.568;25.814;2023-02-15T00:57:48;11.60;;;4.20;;
59649;SDS011;46162;57.568;25.814;2023-02-15T01:00:17;12.38;;;4.00;;
59649;SDS011;46162;57.568;25.814;2023-02-15T01:02:45;16.02;;;4.93;;
59649;SDS011;46162;57.568;25.814;2023-02-15T01:05:15;12.38;;;4.22;;
59649;SDS011;46162;57.568;25.814;2023-02-15T01:07:44;13.57;;;4.60;;
59649;SDS011;46162;57.568;25.814;2023-02-15T01:10:12;12.98;;;3.83;;
59649;SDS011;46162;57.568;25.814;2023-02-15T01:12:41;11.55;;;3.85;;
59649;SDS011;46162;57.568;25.814;2023-02-15T01:15:10;16.02;;;4.28;;
59649;SDS011;46162;57.568;25.814;2023-02-15T01:17:38;12.13;;;4.57;;
59649;SDS011;46162;57.568;25.814;2023-02-15T01:20:07;11.20;;;3.90;;
59649;SDS011;46162;57.568;25.814;2023-02-15T01:22:37;12.40;;;3.38;;
59649;SDS011;46162;57.568;25.814;2023-02-15T01:25:06;13.70;;;3.90;;
59649;SDS011;46162;57.568;25.814;2023-02-15T01:27:35;10.70;;;3.03;;
59649;SDS011;46162;57.568;25.814;2023-02-15T01:30:05;12.55;;;3.47;;
59649;SDS011;46162;57.568;25.814;2023-02-15T01:32:35;16.90;;;2.83;;
59649;SDS011;46162;57.568;25.814;2023-02-15T01:35:04;10.10;;;2.90;;
59649;SDS011;46162;57.568;25.814;2023-02-15T01:37:33;11.90;;;2.95;;
59649;SDS011;46162;57.568;25.814;2023-02-15T01:40:06;9.57;;;2.95;;
59649;SDS011;46162;57.568;25.814;2023-02-15T01:42:36;10.45;;;3.05;;
59649;SDS011;46162;57.568;25.814;2023-02-15T01:45:05;11.27;;;2.78;;
59649;SDS011;46162;57.568;25.814;2023-02-15T01:47:48;10.40;;;2.13;;
59649;SDS011;46162;57.568;25.814;2023-02-15T01:50:22;14.40;;;2.50;;
59649;SDS011;46162;57.568;25.814;2023-02-15T01:52:56;12.38;;;2.65;;
59649;SDS011;46162;57.568;25.814;2023-02-15T01:55:31;13.23;;;2.03;;
59649;SDS011;46162;57.568;25.814;2023-02-15T01:58:02;9.52;;;2.00;;
59649;SDS011;46162;57.568;25.814;2023-02-15T02:00:31;12.50;;;2.35;;
59649;SDS011;46162;57.568;25.814;2023-02-15T02:03:01;12.90;;;2.75;;
59649;SDS011;46162;57.568;25.814;2023-02-15T02:05:31;9.68;;;2.60;;
59649;SDS011;46162;57.568;25.814;2023-02-15T02:08:01;8.50;;;2.60;;
59649;SDS011;46162;57.568;25.814;2023-02-15T02:10:32;13.27;;;2.00;;
59649;SDS011;46162;57.568;25.814;2023-02-15T02:13:01;8.37;;;1.90;;
59649;SDS011;46162;57.568;25.814;2023-02-15T02:15:35;10.45;;;2.53;;
59649;SDS011;46162;57.568;25.814;2023-02-15T02:18:21;9.85;;;1.92;;
59649;SDS011;46162;57.568;25.814;2023-02-15T02:21:09;12.73;;;1.90;;
59649;SDS011;46162;57.568;25.814;2023-02-15T02:24:11;12.95;;;2.17;;
59649;SDS011;46162;57.568;25.814;2023-02-15T02:27:10;8.18;;;2.10;;
59649;SDS011;46162;57.568;25.814;2023-02-15T02:33:09;11.15;;;1.75;;
59649;SDS011;46162;57.568;25.814;2023-02-15T02:35:57;10.80;;;2.30;;
59649;SDS011;46162;57.568;25.814;2023-02-15T02:38:36;6.45;;;2.30;;
59649;SDS011;46162;57.568;25.814;2023-02-15T02:41:16;9.27;;;1.65;;
59649;SDS011;46162;57.568;25.814;2023-02-15T02:43:50;11.30;;;1.77;;
59649;SDS011;46162;57.568;25.814;2023-02-15T02:46:24;8.45;;;1.83;;
59649;SDS011;46162;57.568;25.814;2023-02-15T02:49:00;7.53;;;1.75;;
59649;SDS011;46162;57.568;25.814;2023-02-15T02:51:30;7.90;;;1.50;;
59649;SDS011;46162;57.568;25.814;2023-02-15T02:53:59;9.27;;;2.58;;
59649;SDS011;46162;57.568;25.814;2023-02-15T02:56:33;11.50;;;2.33;;
59649;SDS011;46162;57.568;25.814;2023-02-15T02:59:07;11.85;;;2.22;;
59649;SDS011;46162;57.568;25.814;2023-02-15T03:01:41;9.18;;;2.45;;
59649;SDS011;46162;57.568;25.814;2023-02-15T03:04:17;10.50;;;2.47;;
59649;SDS011;46162;57.568;25.814;2023-02-15T03:06:50;11.65;;;2.78;;
59649;SDS011;46162;57.568;25.814;2023-02-15T03:09:25;10.98;;;2.50;;
59649;SDS011;46162;57.568;25.814;2023-02-15T03:12:11;11.23;;;2.00;;
59649;SDS011;46162;57.568;25.814;2023-02-15T03:14:44;13.68;;;2.70;;
59649;SDS011;46162;57.568;25.814;2023-02-15T03:17:16;9.32;;;2.28;;
59649;SDS011;46162;57.568;25.814;2023-02-15T03:19:52;8.70;;;2.65;;
59649;SDS011;46162;57.568;25.814;2023-02-15T03:22:29;11.45;;;2.75;;
59649;SDS011;46162;57.568;25.814;2023-02-15T03:25:04;13.88;;;2.97;;
59649;SDS011;46162;57.568;25.814;2023-02-15T03:27:37;10.40;;;3.42;;
59649;SDS011;46162;57.568;25.814;2023-02-15T03:30:10;13.80;;;3.88;;
59649;SDS011;46162;57.568;25.814;2023-02-15T03:32:41;14.80;;;4.78;;
59649;SDS011;46162;57.568;25.814;2023-02-15T03:35:14;16.73;;;4.75;;
59649;SDS011;46162;57.568;25.814;2023-02-15T03:37:43;22.60;;;5.47;;
59649;SDS011;46162;57.568;25.814;2023-02-15T03:40:18;18.58;;;5.25;;
59649;SDS011;46162;57.568;25.814;2023-02-15T03:43:10;17.95;;;6.55;;
59649;SDS011;46162;57.568;25.814;2023-02-15T03:45:45;17.67;;;5.85;;
59649;SDS011;46162;57.568;25.814;2023-02-15T03:48:22;17.35;;;6.53;;
59649;SDS011;46162;57.568;25.814;2023-02-15T03:50:57;14.90;;;6.22;;
59649;SDS011;46162;57.568;25.814;2023-02-15T03:56:16;17.30;;;6.88;;
59649;SDS011;46162;57.568;25.814;2023-02-15T03:58:44;14.32;;;6.10;;
59649;SDS011;46162;57.568;25.814;2023-02-15T04:01:33;17.52;;;6.95;;
59649;SDS011;46162;57.568;25.814;2023-02-15T04:04:36;16.58;;;7.07;;
59649;SDS011;46162;57.568;25.814;2023-02-15T04:07:07;17.98;;;7.22;;
59649;SDS011;46162;57.568;25.814;2023-02-15T04:09:37;19.80;;;6.80;;
59649;SDS011;46162;57.568;25.814;2023-02-15T04:12:24;17.40;;;7.80;;
59649;SDS011;46162;57.568;25.814;2023-02-15T04:14:52;17.27;;;6.75;;
59649;SDS011;46162;57.568;25.814;2023-02-15T04:17:39;21.23;;;7.35;;
59649;SDS011;46162;57.568;25.814;2023-02-15T04:20:09;16.42;;;6.57;;
59649;SDS011;46162;57.568;25.814;2023-02-15T04:22:55;21.80;;;6.72;;
59649;SDS011;46162;57.568;25.814;2023-02-15T04:25:41;14.32;;;5.97;;
59649;SDS011;46162;57.568;25.814;2023-02-15T04:28:10;15.93;;;5.68;;
59649;SDS011;46162;57.568;25.814;2023-02-15T04:30:39;15.70;;;5.70;;
59649;SDS011;46162;57.568;25.814;2023-02-15T04:33:07;16.83;;;6.25;;
59649;SDS011;46162;57.568;25.814;2023-02-15T04:35:38;21.20;;;5.25;;
59649;SDS011;46162;57.568;25.814;2023-02-15T04:38:11;17.08;;;5.65;;
59649;SDS011;46162;57.568;25.814;2023-02-15T04:40:39;11.75;;;4.57;;
59649;SDS011;46162;57.568;25.814;2023-02-15T04:43:08;14.77;;;4.88;;
59649;SDS011;46162;57.568;25.814;2023-02-15T04:45:37;16.85;;;5.30;;
59649;SDS011;46162;57.568;25.814;2023-02-15T04:48:06;13.95;;;4.53;;
59649;SDS011;46162;57.568;25.814;2023-02-15T04:50:34;14.32;;;4.07;;
59649;SDS011;46162;57.568;25.814;2023-02-15T04:53:05;15.02;;;4.53;;
59649;SDS011;46162;57.568;25.814;2023-02-15T04:55:34;13.75;;;3.95;;
59649;SDS011;46162;57.568;25.814;2023-02-15T04:58:02;10.70;;;4.20;;
59649;SDS011;46162;57.568;25.814;2023-02-15T05:00:31;13.63;;;4.20;;
59649;SDS011;46162;57.568;25.814;2023-02-15T05:03:00;11.02;;;4.38;;
59649;SDS011;46162;57.568;25.814;2023-02-15T05:05:28;14.85;;;4.28;;
59649;SDS011;46162;57.568;25.814;2023-02-15T05:07:57;12.50;;;4.38;;
59649;SDS011;46162;57.568;25.814;2023-02-15T05:10:28;15.57;;;5.22;;
59649;SDS011;46162;57.568;25.814;2023-02-15T05:12:56;11.75;;;4.03;;
59649;SDS011;46162;57.568;25.814;2023-02-15T05:15:26;14.32;;;3.80;;
59649;SDS011;46162;57.568;25.814;2023-02-15T05:17:54;11.63;;;3.55;;
59649;SDS011;46162;57.568;25.814;2023-02-15T05:20:23;13.52;;;4.07;;
59649;SDS011;46162;57.568;25.814;2023-02-15T05:22:53;13.27;;;4.55;;
59649;SDS011;46162;57.568;25.814;2023-02-15T05:25:22;13.82;;;4.53;;
59649;SDS011;46162;57.568;25.814;2023-02-15T05:28:09;15.15;;;4.75;;
59649;SDS011;46162;57.568;25.814;2023-02-15T05:30:50;12.63;;;4.63;;
59649;SDS011;46162;57.568;25.814;2023-02-15T05:33:29;14.80;;;4.43;;
59649;SDS011;46162;57.568;25.814;2023-02-15T05:36:01;17.25;;;3.92;;
59649;SDS011;46162;57.568;25.814;2023-02-15T05:38:31;13.07;;;3.58;;
59649;SDS011;46162;57.568;25.814;2023-02-15T05:41:00;11.73;;;3.58;;
59649;SDS011;46162;57.568;25.814;2023-02-15T05:43:30;10.15;;;3.30;;
59649;SDS011;46162;57.568;25.814;2023-02-15T05:45:59;11.70;;;4.30;;
59649;SDS011;46162;57.568;25.814;2023-02-15T05:48:29;11.80;;;3.80;;
59649;SDS011;46162;57.568;25.814;2023-02-15T05:50:58;12.73;;;2.85;;
59649;SDS011;46162;57.568;25.814;2023-02-15T05:53:28;10.48;;;3.35;;
59649;SDS011;46162;57.568;25.814;2023-02-15T05:58:31;14.25;;;3.35;;
59649;SDS011;46162;57.568;25.814;2023-02-15T06:01:06;11.82;;;3.33;;
59649;SDS011;46162;57.568;25.814;2023-02-15T06:03:36;9.13;;;2.83;;
59649;SDS011;46162;57.568;25.814;2023-02-15T06:06:05;14.32;;;3.20;;
59649;SDS011;46162;57.568;25.814;2023-02-15T06:08:35;12.23;;;3.38;;
59649;SDS011;46162;57.568;25.814;2023-02-15T06:11:04;11.23;;;3.72;;
59649;SDS011;46162;57.568;25.814;2023-02-15T06:13:35;9.27;;;2.85;;
59649;SDS011;46162;57.568;25.814;2023-02-15T06:16:04;11.57;;;3.60;;
59649;SDS011;46162;57.568;25.814;2023-02-15T06:18:36;9.50;;;3.53;;
59649;SDS011;46162;57.568;25.814;2023-02-15T06:21:05;13.27;;;3.88;;
59649;SDS011;46162;57.568;25.814;2023-02-15T06:23:34;12.55;;;3.20;;
59649;SDS011;46162;57.568;25.814;2023-02-15T06:26:03;11.00;;;3.92;;
59649;SDS011;46162;57.568;25.814;2023-02-15T06:28:31;18.83;;;3.97;;
59649;SDS011;46162;57.568;25.814;2023-02-15T06:31:02;12.98;;;3.58;;
59649;SDS011;46162;57.568;25.814;2023-02-15T06:33:31;13.73;;;4.30;;
59649;SDS011;46162;57.568;25.814;2023-02-15T06:36:00;11.88;;;4.28;;
59649;SDS011;46162;57.568;25.814;2023-02-15T06:38:30;12.38;;;3.88;;
59649;SDS011;46162;57.568;25.814;2023-02-15T06:40:59;10.63;;;3.42;;
59649;SDS011;46162;57.568;25.814;2023-02-15T06:43:28;16.88;;;4.10;;
59649;SDS011;46162;57.568;25.814;2023-02-15T06:45:57;11.57;;;3.97;;
59649;SDS011;46162;57.568;25.814;2023-02-15T06:48:30;11.88;;;4.68;;
59649;SDS011;46162;57.568;25.814;2023-02-15T06:50:59;9.93;;;3.70;;
59649;SDS011;46162;57.568;25.814;2023-02-15T06:53:28;11.10;;;3.63;;
59649;SDS011;46162;57.568;25.814;2023-02-15T06:56:02;8.68;;;3.60;;
59649;SDS011;46162;57.568;25.814;2023-02-15T06:58:33;10.80;;;3.50;;
59649;SDS011;46162;57.568;25.814;2023-02-15T07:01:02;13.10;;;4.10;;
59649;SDS011;46162;57.568;25.814;2023-02-15T07:03:33;10.35;;;2.95;;
59649;SDS011;46162;57.568;25.814;2023-02-15T07:08:35;9.95;;;2.88;;
59649;SDS011;46162;57.568;25.814;2023-02-15T07:11:05;12.15;;;4.40;;
59649;SDS011;46162;57.568;25.814;2023-02-15T07:13:52;12.18;;;4.45;;
59649;SDS011;46162;57.568;25.814;2023-02-15T07:16:20;12.48;;;3.70;;
59649;SDS011;46162;57.568;25.814;2023-02-15T07:18:51;11.88;;;3.97;;
59649;SDS011;46162;57.568;25.814;2023-02-15T07:21:19;12.47;;;4.40;;
59649;SDS011;46162;57.568;25.814;2023-02-15T07:23:48;13.45;;;4.60;;
59649;SDS011;46162;57.568;25.814;2023-02-15T07:26:18;9.63;;;4.18;;
59649;SDS011;46162;57.568;25.814;2023-02-15T07:28:46;14.00;;;5.63;;
59649;SDS011;46162;57.568;25.814;2023-02-15T07:31:15;12.95;;;5.05;;
59649;SDS011;46162;57.568;25.814;2023-02-15T07:33:44;13.88;;;4.47;;
59649;SDS011;46162;57.568;25.814;2023-02-15T07:36:14;11.15;;;4.38;;
59649;SDS011;46162;57.568;25.814;2023-02-15T07:38:43;9.75;;;3.85;;
59649;SDS011;46162;57.568;25.814;2023-02-15T07:41:12;12.07;;;4.03;;
59649;SDS011;46162;57.568;25.814;2023-02-15T07:43:43;12.73;;;4.65;;
59649;SDS011;46162;57.568;25.814;2023-02-15T07:46:13;14.75;;;4.72;;
59649;SDS011;46162;57.568;25.814;2023-02-15T07:48:43;11.45;;;4.57;;
59649;SDS011;46162;57.568;25.814;2023-02-15T07:51:12;13.30;;;4.53;;
59649;SDS011;46162;57.568;25.814;2023-02-15T07:53:43;13.40;;;5.00;;
59649;SDS011;46162;57.568;25.814;2023-02-15T07:56:12;15.38;;;5.45;;
59649;SDS011;46162;57.568;25.814;2023-02-15T07:58:42;14.55;;;4.10;;
59649;SDS011;46162;57.568;25.814;2023-02-15T08:01:25;9.82;;;4.38;;
59649;SDS011;46162;57.568;25.814;2023-02-15T08:06:27;12.77;;;4.80;;
59649;SDS011;46162;57.568;25.814;2023-02-15T08:08:57;11.32;;;4.10;;
59649;SDS011;46162;57.568;25.814;2023-02-15T08:11:26;13.52;;;4.78;;
59649;SDS011;46162;57.568;25.814;2023-02-15T08:14:04;12.30;;;4.88;;
59649;SDS011;46162;57.568;25.814;2023-02-15T08:16:34;16.60;;;5.75;;
59649;SDS011;46162;57.568;25.814;2023-02-15T08:19:06;11.80;;;4.35;;
59649;SDS011;46162;57.568;25.814;2023-02-15T08:21:38;16.10;;;6.70;;
59649;SDS011;46162;57.568;25.814;2023-02-15T08:24:08;13.30;;;6.28;;
59649;SDS011;46162;57.568;25.814;2023-02-15T08:26:38;18.85;;;6.63;;
59649;SDS011;46162;57.568;25.814;2023-02-15T08:29:08;15.98;;;7.18;;
59649;SDS011;46162;57.568;25.814;2023-02-15T08:31:37;17.13;;;7.05;;
59649;SDS011;46162;57.568;25.814;2023-02-15T08:34:08;13.68;;;6.43;;
59649;SDS011;46162;57.568;25.814;2023-02-15T08:36:39;18.47;;;7.30;;
59649;SDS011;46162;57.568;25.814;2023-02-15T08:39:08;16.13;;;7.23;;
59649;SDS011;46162;57.568;25.814;2023-02-15T08:41:37;17.30;;;7.60;;
59649;SDS011;46162;57.568;25.814;2023-02-15T08:44:08;16.50;;;7.53;;
59649;SDS011;46162;57.568;25.814;2023-02-15T08:46:38;17.38;;;7.82;;
59649;SDS011;46162;57.568;25.814;2023-02-15T08:49:08;14.52;;;7.03;;
59649;SDS011;46162;57.568;25.814;2023-02-15T08:51:39;16.83;;;7.63;;
59649;SDS011;46162;57.568;25.814;2023-02-15T08:54:09;16.10;;;8.07;;
59649;SDS011;46162;57.568;25.814;2023-02-15T08:56:42;16.05;;;8.05;;
59649;SDS011;46162;57.568;25.814;2023-02-15T08:59:13;19.38;;;8.65;;
59649;SDS011;46162;57.568;25.814;2023-02-15T09:01:43;17.35;;;8.02;;
59649;SDS011;46162;57.568;25.814;2023-02-15T09:04:12;22.00;;;8.82;;
59649;SDS011;46162;57.568;25.814;2023-02-15T09:06:44;15.32;;;8.50;;
59649;SDS011;46162;57.568;25.814;2023-02-15T09:09:15;18.10;;;8.98;;
59649;SDS011;46162;57.568;25.814;2023-02-15T09:11:45;21.45;;;10.13;;
59649;SDS011;46162;57.568;25.814;2023-02-15T09:14:16;18.55;;;9.25;;
59649;SDS011;46162;57.568;25.814;2023-02-15T09:16:47;22.45;;;9.48;;
59649;SDS011;46162;57.568;25.814;2023-02-15T09:19:19;19.25;;;8.98;;
59649;SDS011;46162;57.568;25.814;2023-02-15T09:21:51;18.42;;;9.52;;
59649;SDS011;46162;57.568;25.814;2023-02-15T09:24:20;18.80;;;7.85;;
59649;SDS011;46162;57.568;25.814;2023-02-15T09:26:48;20.75;;;8.32;;
59649;SDS011;46162;57.568;25.814;2023-02-15T09:29:17;22.63;;;8.75;;
59649;SDS011;46162;57.568;25.814;2023-02-15T09:31:47;21.60;;;9.80;;
59649;SDS011;46162;57.568;25.814;2023-02-15T09:34:18;21.20;;;10.77;;
59649;SDS011;46162;57.568;25.814;2023-02-15T09:36:48;21.13;;;10.20;;
59649;SDS011;46162;57.568;25.814;2023-02-15T09:39:19;22.10;;;10.48;;
59649;SDS011;46162;57.568;25.814;2023-02-15T09:44:57;26.17;;;10.55;;
59649;SDS011;46162;57.568;25.814;2023-02-15T09:47:40;24.25;;;11.05;;
59649;SDS011;46162;57.568;25.814;2023-02-15T09:50:32;21.13;;;11.20;;
59649;SDS011;46162;57.568;25.814;2023-02-15T09:53:18;22.52;;;11.15;;
59649;SDS011;46162;57.568;25.814;2023-02-15T09:55:59;21.27;;;11.30;;
59649;SDS011;46162;57.568;25.814;2023-02-15T09:58:37;23.20;;;12.60;;
59649;SDS011;46162;57.568;25.814;2023-02-15T10:01:16;22.33;;;12.15;;
59649;SDS011;46162;57.568;25.814;2023-02-15T10:03:54;24.23;;;12.38;;
59649;SDS011;46162;57.568;25.814;2023-02-15T10:06:35;23.98;;;11.95;;
59649;SDS011;46162;57.568;25.814;2023-02-15T10:09:15;26.40;;;11.05;;
59649;SDS011;46162;57.568;25.814;2023-02-15T10:11:58;19.80;;;10.65;;
59649;SDS011;46162;57.568;25.814;2023-02-15T10:14:45;20.23;;;10.23;;
59649;SDS011;46162;57.568;25.814;2023-02-15T10:17:40;17.50;;;9.43;;
59649;SDS011;46162;57.568;25.814;2023-02-15T10:20:24;18.92;;;8.68;;
59649;SDS011;46162;57.568;25.814;2023-02-15T10:23:03;19.55;;;8.65;;
59649;SDS011;46162;57.568;25.814;2023-02-15T10:25:48;13.13;;;7.03;;
59649;SDS011;46162;57.568;25.814;2023-02-15T10:28:28;13.95;;;7.63;;
59649;SDS011;46162;57.568;25.814;2023-02-15T10:33:41;16.73;;;8.43;;
59649;SDS011;46162;57.568;25.814;2023-02-15T10:36:17;20.10;;;9.50;;
59649;SDS011;46162;57.568;25.814;2023-02-15T10:38:57;20.23;;;10.13;;
59649;SDS011;46162;57.568;25.814;2023-02-15T10:41:37;19.83;;;9.25;;
59649;SDS011;46162;57.568;25.814;2023-02-15T10:44:19;18.55;;;9.13;;
59649;SDS011;46162;57.568;25.814;2023-02-15T10:47:08;16.00;;;8.85;;
59649;SDS011;46162;57.568;25.814;2023-02-15T10:50:02;17.63;;;9.98;;
59649;SDS011;46162;57.568;25.814;2023-02-15T10:52:39;17.92;;;9.88;;
59649;SDS011;46162;57.568;25.814;2023-02-15T10:55:23;20.17;;;9.88;;
59649;SDS011;46162;57.568;25.814;2023-02-15T10:58:07;19.05;;;8.98;;
59649;SDS011;46162;57.568;25.814;2023-02-15T11:00:45;19.25;;;8.82;;
59649;SDS011;46162;57.568;25.814;2023-02-15T11:03:29;17.83;;;9.53;;
59649;SDS011;46162;57.568;25.814;2023-02-15T11:06:16;21.10;;;10.70;;
59649;SDS011;46162;57.568;25.814;2023-02-15T11:08:48;21.63;;;10.57;;
59649;SDS011;46162;57.568;25.814;2023-02-15T11:11:23;17.05;;;9.35;;
59649;SDS011;46162;57.568;25.814;2023-02-15T11:13:58;16.40;;;8.93;;
59649;SDS011;46162;57.568;25.814;2023-02-15T11:16:32;17.60;;;9.20;;
59649;SDS011;46162;57.568;25.814;2023-02-15T11:19:05;15.77;;;8.60;;
59649;SDS011;46162;57.568;25.814;2023-02-15T11:21:39;21.13;;;9.75;;
59649;SDS011;46162;57.568;25.814;2023-02-15T11:24:12;18.90;;;10.32;;
59649;SDS011;46162;57.568;25.814;2023-02-15T11:26:46;22.10;;;10.18;;
59649;SDS011;46162;57.568;25.814;2023-02-15T11:29:23;18.88;;;9.68;;
59649;SDS011;46162;57.568;25.814;2023-02-15T11:31:57;18.08;;;9.80;;
59649;SDS011;46162;57.568;25.814;2023-02-15T11:34:31;15.68;;;10.07;;
59649;SDS011;46162;57.568;25.814;2023-02-15T11:37:04;19.67;;;10.80;;
59649;SDS011;46162;57.568;25.814;2023-02-15T11:39:38;17.50;;;9.70;;
59649;SDS011;46162;57.568;25.814;2023-02-15T11:42:09;21.83;;;11.23;;
59649;SDS011;46162;57.568;25.814;2023-02-15T11:44:54;22.20;;;12.43;;
59649;SDS011;46162;57.568;25.814;2023-02-15T11:47:30;21.35;;;11.20;;
59649;SDS011;46162;57.568;25.814;2023-02-15T11:49:59;19.55;;;12.52;;
59649;SDS011;46162;57.568;25.814;2023-02-15T11:52:28;20.48;;;11.38;;
59649;SDS011;46162;57.568;25.814;2023-02-15T11:54:56;25.60;;;12.40;;
59649;SDS011;46162;57.568;25.814;2023-02-15T11:57:26;22.95;;;12.73;;
59649;SDS011;46162;57.568;25.814;2023-02-15T12:00:06;20.98;;;12.65;;
59649;SDS011;46162;57.568;25.814;2023-02-15T12:02:44;26.75;;;14.75;;
59649;SDS011;46162;57.568;25.814;2023-02-15T12:05:17;26.95;;;14.38;;
59649;SDS011;46162;57.568;25.814;2023-02-15T12:07:50;26.63;;;14.50;;
59649;SDS011;46162;57.568;25.814;2023-02-15T12:10:23;24.23;;;14.07;;
59649;SDS011;46162;57.568;25.814;2023-02-15T12:13:08;27.30;;;15.45;;
59649;SDS011;46162;57.568;25.814;2023-02-15T12:15:43;30.52;;;16.05;;
59649;SDS011;46162;57.568;25.814;2023-02-15T12:18:17;30.98;;;14.68;;
59649;SDS011;46162;57.568;25.814;2023-02-15T12:20:49;28.27;;;14.77;;
59649;SDS011;46162;57.568;25.814;2023-02-15T12:23:18;29.05;;;15.57;;
59649;SDS011;46162;57.568;25.814;2023-02-15T12:25:49;27.77;;;15.98;;
59649;SDS011;46162;57.568;25.814;2023-02-15T12:28:23;32.15;;;16.33;;
59649;SDS011;46162;57.568;25.814;2023-02-15T12:30:58;31.20;;;17.08;;
59649;SDS011;46162;57.568;25.814;2023-02-15T12:33:30;29.90;;;15.38;;
59649;SDS011;46162;57.568;25.814;2023-02-15T12:36:03;31.20;;;16.75;;
59649;SDS011;46162;57.568;25.814;2023-02-15T12:39:00;31.30;;;18.10;;
59649;SDS011;46162;57.568;25.814;2023-02-15T12:41:46;37.00;;;20.35;;
59649;SDS011;46162;57.568;25.814;2023-02-15T12:44:28;24.75;;;13.45;;
59649;SDS011;46162;57.568;25.814;2023-02-15T12:47:01;23.05;;;12.35;;
59649;SDS011;46162;57.568;25.814;2023-02-15T12:49:33;31.08;;;15.52;;
59649;SDS011;46162;57.568;25.814;2023-02-15T12:52:04;26.73;;;16.10;;
59649;SDS011;46162;57.568;25.814;2023-02-15T12:54:35;31.00;;;17.63;;
59649;SDS011;46162;57.568;25.814;2023-02-15T12:57:14;33.90;;;18.90;;
59649;SDS011;46162;57.568;25.814;2023-02-15T12:59:50;32.30;;;17.55;;
59649;SDS011;46162;57.568;25.814;2023-02-15T13:05:15;31.30;;;17.25;;
59649;SDS011;46162;57.568;25.814;2023-02-15T13:07:53;80.30;;;71.60;;
59649;SDS011;46162;57.568;25.814;2023-02-15T13:10:25;33.53;;;17.17;;
59649;SDS011;46162;57.568;25.814;2023-02-15T13:12:56;30.63;;;18.30;;
59649;SDS011;46162;57.568;25.814;2023-02-15T13:15:27;34.15;;;20.63;;
59649;SDS011;46162;57.568;25.814;2023-02-15T13:18:04;31.23;;;18.58;;
59649;SDS011;46162;57.568;25.814;2023-02-15T13:20:39;30.92;;;15.00;;
59649;SDS011;46162;57.568;25.814;2023-02-15T13:23:17;33.30;;;17.52;;
59649;SDS011;46162;57.568;25.814;2023-02-15T13:25:57;23.80;;;13.55;;
59649;SDS011;46162;57.568;25.814;2023-02-15T13:28:32;27.63;;;12.73;;
59649;SDS011;46162;57.568;25.814;2023-02-15T13:31:13;28.17;;;13.35;;
59649;SDS011;46162;57.568;25.814;2023-02-15T13:33:46;23.98;;;13.40;;
59649;SDS011;46162;57.568;25.814;2023-02-15T13:36:21;26.23;;;13.20;;
59649;SDS011;46162;57.568;25.814;2023-02-15T13:38:58;24.55;;;12.85;;
59649;SDS011;46162;57.568;25.814;2023-02-15T13:41:42;27.05;;;13.25;;
59649;SDS011;46162;57.568;25.814;2023-02-15T13:44:23;36.92;;;15.43;;
59649;SDS011;46162;57.568;25.814;2023-02-15T13:47:16;20.58;;;11.65;;
59649;SDS011;46162;57.568;25.814;2023-02-15T13:49:58;22.67;;;12.00;;
59649;SDS011;46162;57.568;25.814;2023-02-15T13:52:39;22.25;;;10.82;;
59649;SDS011;46162;57.568;25.814;2023-02-15T13:58:14;23.52;;;10.27;;
59649;SDS011;46162;57.568;25.814;2023-02-15T14:01:02;22.85;;;11.02;;
59649;SDS011;46162;57.568;25.814;2023-02-15T14:03:47;18.88;;;9.20;;
59649;SDS011;46162;57.568;25.814;2023-02-15T14:09:43;17.50;;;8.02;;
59649;SDS011;46162;57.568;25.814;2023-02-15T14:12:27;14.77;;;9.15;;
59649;SDS011;46162;57.568;25.814;2023-02-15T14:15:14;15.50;;;7.18;;
59649;SDS011;46162;57.568;25.814;2023-02-15T14:17:55;16.80;;;7.30;;
59649;SDS011;46162;57.568;25.814;2023-02-15T14:20:36;31.52;;;11.13;;
59649;SDS011;46162;57.568;25.814;2023-02-15T14:23:16;22.25;;;8.48;;
59649;SDS011;46162;57.568;25.814;2023-02-15T14:25:59;19.30;;;8.80;;
59649;SDS011;46162;57.568;25.814;2023-02-15T14:28:39;22.95;;;9.27;;
59649;SDS011;46162;57.568;25.814;2023-02-15T14:31:18;15.30;;;7.57;;
59649;SDS011;46162;57.568;25.814;2023-02-15T14:33:55;17.10;;;8.05;;
59649;SDS011;46162;57.568;25.814;2023-02-15T14:36:25;14.90;;;6.55;;
59649;SDS011;46162;57.568;25.814;2023-02-15T14:39:04;14.18;;;6.57;;
59649;SDS011;46162;57.568;25.814;2023-02-15T14:42:01;12.52;;;5.55;;
59649;SDS011;46162;57.568;25.814;2023-02-15T14:44:38;9.95;;;4.97;;
59649;SDS011;46162;57.568;25.814;2023-02-15T14:47:11;16.27;;;5.57;;
59649;SDS011;46162;57.568;25.814;2023-02-15T14:49:46;11.02;;;5.53;;
59649;SDS011;46162;57.568;25.814;2023-02-15T14:52:15;9.90;;;4.85;;
59649;SDS011;46162;57.568;25.814;2023-02-15T14:54:56;9.32;;;5.65;;
59649;SDS011;46162;57.568;25.814;2023-02-15T14:57:29;12.70;;;5.70;;
59649;SDS011;46162;57.568;25.814;2023-02-15T15:00:06;12.20;;;6.30;;
59649;SDS011;46162;57.568;25.814;2023-02-15T15:03:00;11.27;;;5.22;;
59649;SDS011;46162;57.568;25.814;2023-02-15T15:05:31;15.90;;;6.43;;
59649;SDS011;46162;57.568;25.814;2023-02-15T15:08:03;20.08;;;6.22;;
59649;SDS011;46162;57.568;25.814;2023-02-15T15:10:37;12.80;;;5.90;;
59649;SDS011;46162;57.568;25.814;2023-02-15T15:16:25;13.18;;;6.30;;
59649;SDS011;46162;57.568;25.814;2023-02-15T15:18:59;17.48;;;6.32;;
59649;SDS011;46162;57.568;25.814;2023-02-15T15:33:43;15.23;;;7.20;;
59649;SDS011;46162;57.568;25.814;2023-02-15T15:36:29;13.20;;;6.97;;
59649;SDS011;46162;57.568;25.814;2023-02-15T15:39:19;15.25;;;7.63;;
59649;SDS011;46162;57.568;25.814;2023-02-15T15:42:04;15.80;;;6.63;;
59649;SDS011;46162;57.568;25.814;2023-02-15T15:44:49;12.65;;;6.78;;